sensor_id;sensor_type;location;lat;lon;timestamp;pressure;altitude;pressure_sealevel;temperature;humidity
13422;BME280;6782;55.904;13.396;2023-07-29T00:01:27;100165.38;;;12.64;100.00
13422;BME280;6782;55.904;13.396;2023-07-29T00:04:14;100164.81;;;12.77;100.00
13422;BME280;6782;55.904;13.396;2023-07-29T00:07:01;100155.41;;;12.70;100.00
13422;BME280;6782;55.904;13.396;2023-07-29T00:09:50;100158.91;;;12.49;100.00
13422;BME280;6782;55.904;13.396;2023-07-29T00:12:38;100171.97;;;12.53;100.00
13422;BME280;6782;55.904;13.396;2023-07-29T00:15:25;100173.63;;;12.56;100.00
13422;BME280;6782;55.904;13.396;2023-07-29T00:18:12;100191.81;;;12.85;100.00
13422;BME280;6782;55.904;13.396;2023-07-29T00:21:00;100193.78;;;12.80;100.00
13422;BME280;6782;55.904;13.396;2023-07-29T00:23:47;100201.88;;;12.97;100.00
13422;BME280;6782;55.904;13.396;2023-07-29T00:26:35;100166.22;;;12.64;100.00
13422;BME280;6782;55.904;13.396;2023-07-29T00:29:23;100183.22;;;12.80;100.00
13422;BME280;6782;55.904;13.396;2023-07-29T00:32:10;100191.06;;;13.03;100.00
13422;BME280;6782;55.904;13.396;2023-07-29T00:34:57;100182.31;;;13.01;100.00
13422;BME280;6782;55.904;13.396;2023-07-29T00:37:46;100172.44;;;13.06;100.00
13422;BME280;6782;55.904;13.396;2023-07-29T00:40:35;100169.22;;;12.98;100.00
13422;BME280;6782;55.904;13.396;2023-07-29T00:43:24;100158.31;;;12.84;100.00
13422;BME280;6782;55.904;13.396;2023-07-29T00:46:11;100162.63;;;13.08;100.00
13422;BME280;6782;55.904;13.396;2023-07-29T00:49:00;100152.13;;;13.05;100.00
13422;BME280;6782;55.904;13.396;2023-07-29T00:51:47;100137.50;;;12.97;100.00
13422;BME280;6782;55.904;13.396;2023-07-29T00:54:34;100092.22;;;12.21;100.00
13422;BME280;6782;55.904;13.396;2023-07-29T00:57:22;100102.75;;;11.77;100.00
13422;BME280;6782;55.904;13.396;2023-07-29T01:00:13;100130.06;;;11.76;100.00
13422;BME280;6782;55.904;13.396;2023-07-29T01:03:01;100157.25;;;12.03;100.00
13422;BME280;6782;55.904;13.396;2023-07-29T01:05:59;100154.09;;;11.70;100.00
13422;BME280;6782;55.904;13.396;2023-07-29T01:09:01;100174.66;;;11.85;100.00
13422;BME280;6782;55.904;13.396;2023-07-29T01:11:55;100185.50;;;12.01;100.00
13422;BME280;6782;55.904;13.396;2023-07-29T01:14:50;100168.81;;;11.28;100.00
13422;BME280;6782;55.904;13.396;2023-07-29T01:17:48;100183.34;;;11.15;100.00
13422;BME280;6782;55.904;13.396;2023-07-29T01:20:39;100197.94;;;11.00;100.00
13422;BME280;6782;55.904;13.396;2023-07-29T01:23:31;100229.19;;;11.12;100.00
13422;BME280;6782;55.904;13.396;2023-07-29T01:26:18;100254.66;;;11.40;100.00
13422;BME280;6782;55.904;13.396;2023-07-29T01:29:05;100284.13;;;11.78;100.00
13422;BME280;6782;55.904;13.396;2023-07-29T01:31:54;100260.47;;;11.24;100.00
13422;BME280;6782;55.904;13.396;2023-07-29T01:34:48;100273.91;;;11.17;100.00
13422;BME280;6782;55.904;13.396;2023-07-29T01:37:38;100281.50;;;11.00;100.00
13422;BME280;6782;55.904;13.396;2023-07-29T01:40:30;100319.38;;;11.51;100.00
13422;BME280;6782;55.904;13.396;2023-07-29T01:43:18;100327.00;;;11.60;100.00
13422;BME280;6782;55.904;13.396;2023-07-29T01:46:09;100329.31;;;11.71;100.00
13422;BME280;6782;55.904;13.396;2023-07-29T01:48:56;100322.53;;;11.62;100.00
13422;BME280;6782;55.904;13.396;2023-07-29T01:51:43;100333.28;;;11.82;100.00
13422;BME280;6782;55.904;13.396;2023-07-29T01:54:30;100334.78;;;11.89;100.00
13422;BME280;6782;55.904;13.396;2023-07-29T01:57:19;100316.84;;;11.74;100.00
13422;BME280;6782;55.904;13.396;2023-07-29T02:00:07;100333.03;;;11.90;100.00
13422;BME280;6782;55.904;13.396;2023-07-29T02:02:55;100327.00;;;12.10;100.00
13422;BME280;6782;55.904;13.396;2023-07-29T02:05:42;100324.91;;;12.19;100.00
13422;BME280;6782;55.904;13.396;2023-07-29T02:08:31;100311.59;;;11.98;100.00
13422;BME280;6782;55.904;13.396;2023-07-29T02:11:18;100302.38;;;11.84;100.00
13422;BME280;6782;55.904;13.396;2023-07-29T02:14:07;100295.22;;;11.88;100.00
13422;BME280;6782;55.904;13.396;2023-07-29T02:16:55;100308.19;;;12.42;100.00
13422;BME280;6782;55.904;13.396;2023-07-29T02:19:42;100246.16;;;11.30;100.00
13422;BME280;6782;55.904;13.396;2023-07-29T02:22:30;100250.25;;;10.88;100.00
13422;BME280;6782;55.904;13.396;2023-07-29T02:25:17;100280.91;;;11.44;100.00
13422;BME280;6782;55.904;13.396;2023-07-29T02:28:04;100246.34;;;10.73;100.00
13422;BME280;6782;55.904;13.396;2023-07-29T02:31:19;100252.53;;;10.43;100.00
13422;BME280;6782;55.904;13.396;2023-07-29T02:34:06;100269.06;;;10.49;100.00
13422;BME280;6782;55.904;13.396;2023-07-29T02:36:53;100294.31;;;10.84;100.00
13422;BME280;6782;55.904;13.396;2023-07-29T02:39:40;100318.34;;;11.03;100.00
13422;BME280;6782;55.904;13.396;2023-07-29T02:42:28;100335.72;;;11.10;100.00
13422;BME280;6782;55.904;13.396;2023-07-29T02:45:15;100343.97;;;11.27;100.00
13422;BME280;6782;55.904;13.396;2023-07-29T02:48:04;100365.69;;;11.61;100.00
13422;BME280;6782;55.904;13.396;2023-07-29T02:50:51;100338.41;;;11.08;100.00
13422;BME280;6782;55.904;13.396;2023-07-29T02:53:38;100320.53;;;10.61;100.00
13422;BME280;6782;55.904;13.396;2023-07-29T02:56:25;100318.59;;;10.38;100.00
13422;BME280;6782;55.904;13.396;2023-07-29T02:59:12;100361.22;;;10.82;100.00
13422;BME280;6782;55.904;13.396;2023-07-29T03:02:00;100371.44;;;10.94;100.00
13422;BME280;6782;55.904;13.396;2023-07-29T03:04:49;100367.47;;;10.79;100.00
13422;BME280;6782;55.904;13.396;2023-07-29T03:07:36;100388.06;;;10.96;100.00
13422;BME280;6782;55.904;13.396;2023-07-29T03:10:24;100374.16;;;10.61;100.00
13422;BME280;6782;55.904;13.396;2023-07-29T03:13:11;100384.78;;;10.58;100.00
13422;BME280;6782;55.904;13.396;2023-07-29T03:16:04;100413.91;;;11.12;100.00
13422;BME280;6782;55.904;13.396;2023-07-29T03:18:51;100424.00;;;11.27;100.00
13422;BME280;6782;55.904;13.396;2023-07-29T03:21:40;100445.41;;;11.46;100.00
13422;BME280;6782;55.904;13.396;2023-07-29T03:24:27;100440.44;;;11.37;100.00
13422;BME280;6782;55.904;13.396;2023-07-29T03:27:14;100452.03;;;11.59;100.00
13422;BME280;6782;55.904;13.396;2023-07-29T03:30:02;100444.81;;;11.64;100.00
13422;BME280;6782;55.904;13.396;2023-07-29T03:32:50;100464.97;;;11.94;100.00
13422;BME280;6782;55.904;13.396;2023-07-29T03:35:37;100448.50;;;12.13;100.00
13422;BME280;6782;55.904;13.396;2023-07-29T03:38:26;100449.59;;;12.32;100.00
13422;BME280;6782;55.904;13.396;2023-07-29T03:41:13;100438.13;;;12.56;100.00
13422;BME280;6782;55.904;13.396;2023-07-29T03:44:00;100453.13;;;13.27;100.00
13422;BME280;6782;55.904;13.396;2023-07-29T03:46:47;100401.69;;;12.87;100.00
13422;BME280;6782;55.904;13.396;2023-07-29T03:49:34;100411.75;;;13.46;100.00
13422;BME280;6782;55.904;13.396;2023-07-29T03:52:21;100381.28;;;13.77;100.00
13422;BME280;6782;55.904;13.396;2023-07-29T03:55:10;100306.31;;;12.67;100.00
13422;BME280;6782;55.904;13.396;2023-07-29T03:57:58;100301.72;;;12.72;100.00
13422;BME280;6782;55.904;13.396;2023-07-29T04:00:45;100302.44;;;13.21;100.00
13422;BME280;6782;55.904;13.396;2023-07-29T04:03:33;100279.09;;;13.08;100.00
13422;BME280;6782;55.904;13.396;2023-07-29T04:06:20;100234.75;;;12.27;100.00
13422;BME280;6782;55.904;13.396;2023-07-29T04:09:08;100224.69;;;11.90;100.00
13422;BME280;6782;55.904;13.396;2023-07-29T04:11:56;100282.88;;;12.80;100.00
13422;BME280;6782;55.904;13.396;2023-07-29T04:14:44;100325.25;;;14.05;100.00
13422;BME280;6782;55.904;13.396;2023-07-29T04:17:31;100349.59;;;14.74;100.00
13422;BME280;6782;55.904;13.396;2023-07-29T04:20:19;100331.88;;;15.10;100.00
13422;BME280;6782;55.904;13.396;2023-07-29T04:23:06;100290.28;;;14.92;100.00
13422;BME280;6782;55.904;13.396;2023-07-29T04:25:53;100231.38;;;13.91;100.00
13422;BME280;6782;55.904;13.396;2023-07-29T04:28:42;100205.00;;;13.29;100.00
13422;BME280;6782;55.904;13.396;2023-07-29T04:31:29;100223.19;;;13.16;100.00
13422;BME280;6782;55.904;13.396;2023-07-29T04:34:17;100267.66;;;13.70;100.00
13422;BME280;6782;55.904;13.396;2023-07-29T04:37:04;100267.66;;;13.70;100.00
13422;BME280;6782;55.904;13.396;2023-07-29T04:39:52;100275.72;;;13.47;100.00
13422;BME280;6782;55.904;13.396;2023-07-29T04:42:39;100296.38;;;13.59;100.00
13422;BME280;6782;55.904;13.396;2023-07-29T04:45:29;100329.38;;;13.92;100.00
13422;BME280;6782;55.904;13.396;2023-07-29T04:48:16;100328.84;;;13.84;100.00
13422;BME280;6782;55.904;13.396;2023-07-29T04:51:03;100361.78;;;14.19;100.00
13422;BME280;6782;55.904;13.396;2023-07-29T04:53:51;100385.41;;;14.64;100.00
13422;BME280;6782;55.904;13.396;2023-07-29T04:56:38;100388.03;;;14.84;100.00
13422;BME280;6782;55.904;13.396;2023-07-29T04:59:26;100384.44;;;14.85;100.00
13422;BME280;6782;55.904;13.396;2023-07-29T05:02:15;100392.50;;;15.02;100.00
13422;BME280;6782;55.904;13.396;2023-07-29T05:05:03;100405.47;;;15.27;100.00
13422;BME280;6782;55.904;13.396;2023-07-29T05:07:50;100402.94;;;15.42;100.00
13422;BME280;6782;55.904;13.396;2023-07-29T05:10:37;100366.25;;;15.13;100.00
13422;BME280;6782;55.904;13.396;2023-07-29T05:13:24;100345.13;;;14.93;100.00
13422;BME280;6782;55.904;13.396;2023-07-29T05:16:11;100344.56;;;14.86;100.00
13422;BME280;6782;55.904;13.396;2023-07-29T05:18:59;100356.59;;;15.12;100.00
13422;BME280;6782;55.904;13.396;2023-07-29T05:21:47;100363.72;;;15.29;100.00
13422;BME280;6782;55.904;13.396;2023-07-29T05:24:34;100364.47;;;15.32;100.00
13422;BME280;6782;55.904;13.396;2023-07-29T05:27:21;100366.50;;;15.44;100.00
13422;BME280;6782;55.904;13.396;2023-07-29T05:30:08;100378.72;;;15.84;100.00
13422;BME280;6782;55.904;13.396;2023-07-29T05:32:55;100377.22;;;15.96;100.00
13422;BME280;6782;55.904;13.396;2023-07-29T05:35:44;100369.31;;;16.11;100.00
13422;BME280;6782;55.904;13.396;2023-07-29T05:38:33;100372.50;;;16.35;100.00
13422;BME280;6782;55.904;13.396;2023-07-29T05:41:20;100365.56;;;16.48;100.00
13422;BME280;6782;55.904;13.396;2023-07-29T05:44:07;100353.72;;;16.71;100.00
13422;BME280;6782;55.904;13.396;2023-07-29T05:46:55;100336.97;;;16.84;100.00
13422;BME280;6782;55.904;13.396;2023-07-29T05:49:42;100326.84;;;17.07;100.00
13422;BME280;6782;55.904;13.396;2023-07-29T05:52:31;100302.72;;;17.24;100.00
13422;BME280;6782;55.904;13.396;2023-07-29T05:55:18;100279.16;;;17.32;100.00
13422;BME280;6782;55.904;13.396;2023-07-29T05:58:05;100257.66;;;17.35;100.00
13422;BME280;6782;55.904;13.396;2023-07-29T06:00:52;100249.59;;;17.66;100.00
13422;BME280;6782;55.904;13.396;2023-07-29T06:03:40;100252.66;;;17.88;100.00
13422;BME280;6782;55.904;13.396;2023-07-29T06:06:27;100228.56;;;17.90;100.00
13422;BME280;6782;55.904;13.396;2023-07-29T06:09:18;100213.03;;;17.96;100.00
13422;BME280;6782;55.904;13.396;2023-07-29T06:12:06;100210.56;;;17.79;100.00
13422;BME280;6782;55.904;13.396;2023-07-29T06:14:53;100220.09;;;17.97;100.00
13422;BME280;6782;55.904;13.396;2023-07-29T06:17:40;100216.66;;;17.95;100.00
13422;BME280;6782;55.904;13.396;2023-07-29T06:20:28;100231.91;;;18.22;100.00
13422;BME280;6782;55.904;13.396;2023-07-29T06:23:15;100240.66;;;18.24;100.00
13422;BME280;6782;55.904;13.396;2023-07-29T06:26:04;100224.66;;;18.09;100.00
13422;BME280;6782;55.904;13.396;2023-07-29T06:28:52;100232.09;;;18.04;100.00
13422;BME280;6782;55.904;13.396;2023-07-29T06:31:39;100242.78;;;18.04;100.00
13422;BME280;6782;55.904;13.396;2023-07-29T06:34:26;100253.63;;;18.15;100.00
13422;BME280;6782;55.904;13.396;2023-07-29T06:37:14;100254.78;;;18.11;100.00
13422;BME280;6782;55.904;13.396;2023-07-29T06:40:01;100250.22;;;18.28;100.00
13422;BME280;6782;55.904;13.396;2023-07-29T06:42:50;100246.38;;;18.32;100.00
13422;BME280;6782;55.904;13.396;2023-07-29T06:45:37;100247.50;;;18.42;100.00
13422;BME280;6782;55.904;13.396;2023-07-29T06:48:24;100237.81;;;18.55;100.00
13422;BME280;6782;55.904;13.396;2023-07-29T06:51:12;100221.59;;;18.58;100.00
13422;BME280;6782;55.904;13.396;2023-07-29T06:53:59;100205.75;;;18.55;100.00
13422;BME280;6782;55.904;13.396;2023-07-29T06:56:46;100196.38;;;18.62;100.00
13422;BME280;6782;55.904;13.396;2023-07-29T06:59:35;100195.66;;;18.87;100.00
13422;BME280;6782;55.904;13.396;2023-07-29T07:02:23;100172.75;;;18.83;100.00
13422;BME280;6782;55.904;13.396;2023-07-29T07:05:10;100166.06;;;18.90;100.00
13422;BME280;6782;55.904;13.396;2023-07-29T07:07:57;100168.78;;;19.15;100.00
13422;BME280;6782;55.904;13.396;2023-07-29T07:10:46;100164.94;;;19.31;100.00
13422;BME280;6782;55.904;13.396;2023-07-29T07:13:33;100147.09;;;19.32;100.00
13422;BME280;6782;55.904;13.396;2023-07-29T07:16:22;100143.38;;;19.47;100.00
13422;BME280;6782;55.904;13.396;2023-07-29T07:19:10;100144.03;;;19.76;100.00
13422;BME280;6782;55.904;13.396;2023-07-29T07:21:57;100120.91;;;19.75;100.00
13422;BME280;6782;55.904;13.396;2023-07-29T07:24:44;100126.47;;;19.97;100.00
13422;BME280;6782;55.904;13.396;2023-07-29T07:27:31;100112.81;;;20.25;100.00
13422;BME280;6782;55.904;13.396;2023-07-29T07:30:18;100109.09;;;20.63;100.00
13422;BME280;6782;55.904;13.396;2023-07-29T07:33:07;100083.31;;;20.73;100.00
13422;BME280;6782;55.904;13.396;2023-07-29T07:35:55;100048.25;;;20.65;100.00
13422;BME280;6782;55.904;13.396;2023-07-29T07:38:42;100026.59;;;20.79;100.00
13422;BME280;6782;55.904;13.396;2023-07-29T07:41:29;100013.50;;;20.98;100.00
13422;BME280;6782;55.904;13.396;2023-07-29T07:44:16;99996.34;;;21.11;100.00
13422;BME280;6782;55.904;13.396;2023-07-29T07:47:05;99960.13;;;21.06;100.00
13422;BME280;6782;55.904;13.396;2023-07-29T07:49:54;99912.56;;;20.64;100.00
13422;BME280;6782;55.904;13.396;2023-07-29T07:52:41;99909.19;;;21.06;100.00
13422;BME280;6782;55.904;13.396;2023-07-29T07:55:28;99877.00;;;21.06;100.00
13422;BME280;6782;55.904;13.396;2023-07-29T07:58:16;99839.22;;;21.20;100.00
13422;BME280;6782;55.904;13.396;2023-07-29T08:01:03;99806.50;;;21.37;100.00
13422;BME280;6782;55.904;13.396;2023-07-29T08:03:50;99766.47;;;21.45;100.00
13422;BME280;6782;55.904;13.396;2023-07-29T08:06:39;99710.47;;;21.31;100.00
13422;BME280;6782;55.904;13.396;2023-07-29T08:09:26;99696.13;;;21.42;100.00
13422;BME280;6782;55.904;13.396;2023-07-29T08:12:13;99702.16;;;21.55;100.00
13422;BME280;6782;55.904;13.396;2023-07-29T08:15:00;99677.50;;;21.40;100.00
13422;BME280;6782;55.904;13.396;2023-07-29T08:17:48;99712.06;;;21.54;100.00
13422;BME280;6782;55.904;13.396;2023-07-29T08:20:35;99725.00;;;21.70;100.00
13422;BME280;6782;55.904;13.396;2023-07-29T08:23:24;99730.25;;;21.71;100.00
13422;BME280;6782;55.904;13.396;2023-07-29T08:26:11;99784.81;;;22.13;100.00
13422;BME280;6782;55.904;13.396;2023-07-29T08:28:59;99753.28;;;22.36;100.00
13422;BME280;6782;55.904;13.396;2023-07-29T08:31:46;99733.75;;;22.34;100.00
13422;BME280;6782;55.904;13.396;2023-07-29T08:34:33;99744.22;;;22.37;100.00
13422;BME280;6782;55.904;13.396;2023-07-29T08:37:20;99721.03;;;22.36;100.00
13422;BME280;6782;55.904;13.396;2023-07-29T08:40:10;99795.63;;;22.83;100.00
13422;BME280;6782;55.904;13.396;2023-07-29T08:42:58;99768.22;;;22.89;100.00
13422;BME280;6782;55.904;13.396;2023-07-29T08:45:48;99697.44;;;22.89;100.00
13422;BME280;6782;55.904;13.396;2023-07-29T08:48:40;99650.44;;;22.64;100.00
13422;BME280;6782;55.904;13.396;2023-07-29T08:51:27;99688.25;;;22.91;100.00
13422;BME280;6782;55.904;13.396;2023-07-29T08:54:16;99684.31;;;23.15;100.00
13422;BME280;6782;55.904;13.396;2023-07-29T08:57:06;99682.31;;;23.17;100.00
13422;BME280;6782;55.904;13.396;2023-07-29T08:59:55;99644.25;;;23.21;100.00
13422;BME280;6782;55.904;13.396;2023-07-29T09:02:42;99629.13;;;23.39;100.00
13422;BME280;6782;55.904;13.396;2023-07-29T09:05:29;99578.81;;;23.40;100.00
13422;BME280;6782;55.904;13.396;2023-07-29T09:08:17;99568.03;;;23.86;100.00
13422;BME280;6782;55.904;13.396;2023-07-29T09:11:05;99485.81;;;23.64;100.00
13422;BME280;6782;55.904;13.396;2023-07-29T09:13:55;99479.59;;;23.64;100.00
13422;BME280;6782;55.904;13.396;2023-07-29T09:16:42;99504.50;;;23.66;100.00
13422;BME280;6782;55.904;13.396;2023-07-29T09:19:32;99454.00;;;23.78;100.00
13422;BME280;6782;55.904;13.396;2023-07-29T09:22:20;99466.00;;;24.10;100.00
13422;BME280;6782;55.904;13.396;2023-07-29T09:25:08;99398.06;;;24.42;100.00
13422;BME280;6782;55.904;13.396;2023-07-29T09:27:59;99334.97;;;24.27;100.00
13422;BME280;6782;55.904;13.396;2023-07-29T09:30:48;99250.91;;;23.62;100.00
13422;BME280;6782;55.904;13.396;2023-07-29T09:33:36;99364.53;;;23.66;100.00
13422;BME280;6782;55.904;13.396;2023-07-29T09:36:25;99432.34;;;23.52;100.00
13422;BME280;6782;55.904;13.396;2023-07-29T09:39:12;99515.66;;;23.71;100.00
13422;BME280;6782;55.904;13.396;2023-07-29T09:41:59;99423.63;;;23.31;100.00
13422;BME280;6782;55.904;13.396;2023-07-29T09:44:48;99505.72;;;23.35;100.00
13422;BME280;6782;55.904;13.396;2023-07-29T09:47:37;99484.00;;;23.19;100.00
13422;BME280;6782;55.904;13.396;2023-07-29T09:50:24;99543.69;;;23.22;100.00
13422;BME280;6782;55.904;13.396;2023-07-29T09:53:11;99535.25;;;23.08;100.00
13422;BME280;6782;55.904;13.396;2023-07-29T09:55:58;99543.91;;;22.82;100.00
13422;BME280;6782;55.904;13.396;2023-07-29T09:58:46;99607.16;;;22.67;100.00
13422;BME280;6782;55.904;13.396;2023-07-29T10:01:34;99676.78;;;22.80;100.00
13422;BME280;6782;55.904;13.396;2023-07-29T10:04:23;99705.03;;;22.65;100.00
13422;BME280;6782;55.904;13.396;2023-07-29T10:07:11;99736.69;;;22.61;100.00
13422;BME280;6782;55.904;13.396;2023-07-29T10:09:59;99778.88;;;22.70;100.00
13422;BME280;6782;55.904;13.396;2023-07-29T10:12:53;99760.16;;;22.59;100.00
13422;BME280;6782;55.904;13.396;2023-07-29T10:15:42;99787.63;;;22.93;100.00
13422;BME280;6782;55.904;13.396;2023-07-29T10:18:32;99767.56;;;23.35;100.00
13422;BME280;6782;55.904;13.396;2023-07-29T10:21:21;99669.75;;;23.46;100.00
13422;BME280;6782;55.904;13.396;2023-07-29T10:24:15;99656.81;;;23.68;100.00
13422;BME280;6782;55.904;13.396;2023-07-29T10:27:18;99627.59;;;24.20;100.00
13422;BME280;6782;55.904;13.396;2023-07-29T10:30:08;99610.78;;;24.36;100.00
13422;BME280;6782;55.904;13.396;2023-07-29T10:32:58;99539.00;;;24.35;100.00
13422;BME280;6782;55.904;13.396;2023-07-29T10:35:49;99454.94;;;24.31;100.00
13422;BME280;6782;55.904;13.396;2023-07-29T10:38:39;99461.22;;;24.40;100.00
13422;BME280;6782;55.904;13.396;2023-07-29T10:41:57;99431.50;;;24.14;100.00
13422;BME280;6782;55.904;13.396;2023-07-29T10:44:49;99496.97;;;23.97;100.00
13422;BME280;6782;55.904;13.396;2023-07-29T10:47:36;99586.03;;;24.22;100.00
13422;BME280;6782;55.904;13.396;2023-07-29T10:50:23;99631.78;;;24.77;100.00
13422;BME280;6782;55.904;13.396;2023-07-29T10:53:13;99477.66;;;24.46;100.00
13422;BME280;6782;55.904;13.396;2023-07-29T10:56:05;99415.69;;;24.01;100.00
13422;BME280;6782;55.904;13.396;2023-07-29T10:58:52;99466.16;;;23.82;100.00
13422;BME280;6782;55.904;13.396;2023-07-29T11:01:42;99617.56;;;24.12;100.00
13422;BME280;6782;55.904;13.396;2023-07-29T11:04:30;99634.69;;;24.21;100.00
13422;BME280;6782;55.904;13.396;2023-07-29T11:07:22;99529.53;;;24.31;100.00
13422;BME280;6782;55.904;13.396;2023-07-29T11:10:16;99438.59;;;24.33;100.00
13422;BME280;6782;55.904;13.396;2023-07-29T11:13:05;99515.34;;;24.99;100.00
13422;BME280;6782;55.904;13.396;2023-07-29T11:15:53;99405.03;;;24.70;100.00
13422;BME280;6782;55.904;13.396;2023-07-29T11:18:43;99370.16;;;24.69;100.00
13422;BME280;6782;55.904;13.396;2023-07-29T11:21:32;99253.03;;;24.38;100.00
13422;BME280;6782;55.904;13.396;2023-07-29T11:24:20;99471.19;;;25.00;100.00
13422;BME280;6782;55.904;13.396;2023-07-29T11:27:11;99273.13;;;24.77;100.00
13422;BME280;6782;55.904;13.396;2023-07-29T11:30:02;99248.88;;;24.77;100.00
13422;BME280;6782;55.904;13.396;2023-07-29T11:32:50;99230.69;;;24.79;100.00
13422;BME280;6782;55.904;13.396;2023-07-29T11:35:38;99286.94;;;24.74;100.00
13422;BME280;6782;55.904;13.396;2023-07-29T11:38:26;99274.56;;;24.63;100.00
13422;BME280;6782;55.904;13.396;2023-07-29T11:41:19;99247.38;;;24.49;100.00
13422;BME280;6782;55.904;13.396;2023-07-29T11:44:09;99348.53;;;24.86;100.00
13422;BME280;6782;55.904;13.396;2023-07-29T11:47:01;99286.34;;;24.80;100.00
13422;BME280;6782;55.904;13.396;2023-07-29T11:49:48;99232.81;;;24.67;100.00
13422;BME280;6782;55.904;13.396;2023-07-29T11:52:37;99265.19;;;24.16;100.00
13422;BME280;6782;55.904;13.396;2023-07-29T11:55:25;99334.59;;;24.04;100.00
13422;BME280;6782;55.904;13.396;2023-07-29T11:58:13;99520.69;;;24.56;100.00
13422;BME280;6782;55.904;13.396;2023-07-29T12:01:01;99595.69;;;24.87;100.00
13422;BME280;6782;55.904;13.396;2023-07-29T12:03:50;99550.34;;;24.73;100.00
13422;BME280;6782;55.904;13.396;2023-07-29T12:06:39;99518.28;;;25.06;100.00
13422;BME280;6782;55.904;13.396;2023-07-29T12:09:28;99430.50;;;25.19;100.00
13422;BME280;6782;55.904;13.396;2023-07-29T12:12:16;99412.28;;;25.13;100.00
13422;BME280;6782;55.904;13.396;2023-07-29T12:15:04;99434.50;;;25.75;100.00
13422;BME280;6782;55.904;13.396;2023-07-29T12:17:53;99105.69;;;25.36;100.00
13422;BME280;6782;55.904;13.396;2023-07-29T12:20:45;99170.00;;;25.49;100.00
13422;BME280;6782;55.904;13.396;2023-07-29T12:23:32;99086.47;;;25.56;100.00
13422;BME280;6782;55.904;13.396;2023-07-29T12:26:20;98915.69;;;24.66;100.00
13422;BME280;6782;55.904;13.396;2023-07-29T12:29:14;99271.88;;;24.89;100.00
13422;BME280;6782;55.904;13.396;2023-07-29T12:32:03;99463.69;;;25.12;100.00
13422;BME280;6782;55.904;13.396;2023-07-29T12:34:53;99349.00;;;24.56;100.00
13422;BME280;6782;55.904;13.396;2023-07-29T12:37:42;99337.25;;;24.65;100.00
13422;BME280;6782;55.904;13.396;2023-07-29T12:40:31;99536.56;;;24.76;100.00
13422;BME280;6782;55.904;13.396;2023-07-29T12:43:19;99555.38;;;24.86;100.00
13422;BME280;6782;55.904;13.396;2023-07-29T12:46:06;99519.16;;;24.36;100.00
13422;BME280;6782;55.904;13.396;2023-07-29T12:48:53;99603.56;;;24.54;100.00
13422;BME280;6782;55.904;13.396;2023-07-29T12:51:41;99641.13;;;24.38;100.00
13422;BME280;6782;55.904;13.396;2023-07-29T12:54:30;99668.97;;;24.28;100.00
13422;BME280;6782;55.904;13.396;2023-07-29T12:57:18;99671.44;;;24.12;100.00
13422;BME280;6782;55.904;13.396;2023-07-29T13:00:07;99705.03;;;24.18;100.00
13422;BME280;6782;55.904;13.396;2023-07-29T13:02:55;99740.19;;;24.16;100.00
13422;BME280;6782;55.904;13.396;2023-07-29T13:05:44;99701.97;;;23.84;100.00
13422;BME280;6782;55.904;13.396;2023-07-29T13:08:32;99724.03;;;24.16;100.00
13422;BME280;6782;55.904;13.396;2023-07-29T13:11:22;99697.59;;;24.29;100.00
13422;BME280;6782;55.904;13.396;2023-07-29T13:14:10;99589.69;;;23.94;100.00
13422;BME280;6782;55.904;13.396;2023-07-29T13:16:58;99637.63;;;23.81;100.00
13422;BME280;6782;55.904;13.396;2023-07-29T13:19:46;99697.97;;;23.88;100.00
13422;BME280;6782;55.904;13.396;2023-07-29T13:22:33;99632.03;;;23.55;100.00
13422;BME280;6782;55.904;13.396;2023-07-29T13:25:21;99663.47;;;23.55;100.00
13422;BME280;6782;55.904;13.396;2023-07-29T13:28:11;99703.44;;;23.31;100.00
13422;BME280;6782;55.904;13.396;2023-07-29T13:31:00;99736.69;;;23.20;100.00
13422;BME280;6782;55.904;13.396;2023-07-29T13:33:48;99805.31;;;22.95;100.00
13422;BME280;6782;55.904;13.396;2023-07-29T13:36:38;99887.78;;;23.16;100.00
13422;BME280;6782;55.904;13.396;2023-07-29T13:39:25;99889.78;;;23.23;100.00
13422;BME280;6782;55.904;13.396;2023-07-29T13:42:13;99865.69;;;22.61;100.00
13422;BME280;6782;55.904;13.396;2023-07-29T13:45:02;99854.19;;;22.29;100.00
13422;BME280;6782;55.904;13.396;2023-07-29T13:47:49;99840.06;;;21.63;100.00
13422;BME280;6782;55.904;13.396;2023-07-29T13:50:36;99843.22;;;21.68;100.00
13422;BME280;6782;55.904;13.396;2023-07-29T13:53:24;99865.09;;;21.96;100.00
13422;BME280;6782;55.904;13.396;2023-07-29T13:56:13;99855.47;;;21.50;100.00
13422;BME280;6782;55.904;13.396;2023-07-29T13:59:01;99888.63;;;21.60;100.00
13422;BME280;6782;55.904;13.396;2023-07-29T14:02:05;99882.81;;;21.44;100.00
13422;BME280;6782;55.904;13.396;2023-07-29T14:04:52;99923.00;;;21.66;100.00
13422;BME280;6782;55.904;13.396;2023-07-29T14:07:47;99946.66;;;21.72;100.00
13422;BME280;6782;55.904;13.396;2023-07-29T14:11:05;99969.09;;;21.82;100.00
13422;BME280;6782;55.904;13.396;2023-07-29T14:14:09;99998.41;;;21.74;100.00
13422;BME280;6782;55.904;13.396;2023-07-29T14:17:10;100018.63;;;21.67;100.00
13422;BME280;6782;55.904;13.396;2023-07-29T14:20:01;100026.09;;;21.53;100.00
13422;BME280;6782;55.904;13.396;2023-07-29T14:26:13;100033.88;;;21.11;100.00
13422;BME280;6782;55.904;13.396;2023-07-29T14:29:00;100071.63;;;21.54;100.00
13422;BME280;6782;55.904;13.396;2023-07-29T14:31:50;100093.31;;;21.73;100.00
13422;BME280;6782;55.904;13.396;2023-07-29T14:34:39;100060.72;;;21.23;100.00
13422;BME280;6782;55.904;13.396;2023-07-29T14:37:27;100057.16;;;20.76;100.00
13422;BME280;6782;55.904;13.396;2023-07-29T14:40:17;100103.06;;;21.41;100.00